sensor_id;sensor_type;location;lat;lon;timestamp;P1;durP1;ratioP1;P2;durP2;ratioP2
18136;SDS011;9194;42.632;23.298;2023-10-19T00:00:35;1.80;;;1.43;;
18136;SDS011;9194;42.632;23.298;2023-10-19T00:05:40;1.93;;;1.70;;
18136;SDS011;9194;42.632;23.298;2023-10-19T00:10:49;2.10;;;1.87;;
18136;SDS011;9194;42.632;23.298;2023-10-19T00:16:11;1.57;;;1.57;;
18136;SDS011;9194;42.632;23.298;2023-10-19T00:21:18;2.13;;;2.03;;
18136;SDS011;9194;42.632;23.298;2023-10-19T00:26:26;6.27;;;3.37;;
18136;SDS011;9194;42.632;23.298;2023-10-19T00:31:33;1.33;;;1.23;;
18136;SDS011;9194;42.632;23.298;2023-10-19T00:36:40;1.83;;;1.73;;
18136;SDS011;9194;42.632;23.298;2023-10-19T00:41:41;2.33;;;2.13;;
18136;SDS011;9194;42.632;23.298;2023-10-19T00:46:44;1.30;;;1.27;;
18136;SDS011;9194;42.632;23.298;2023-10-19T00:51:52;3.13;;;1.17;;
18136;SDS011;9194;42.632;23.298;2023-10-19T00:57:14;2.20;;;1.67;;
18136;SDS011;9194;42.632;23.298;2023-10-19T01:02:21;5.40;;;1.90;;
18136;SDS011;9194;42.632;23.298;2023-10-19T01:07:22;3.20;;;1.83;;
18136;SDS011;9194;42.632;23.298;2023-10-19T01:12:27;26.73;;;2.33;;
18136;SDS011;9194;42.632;23.298;2023-10-19T01:17:33;1.93;;;1.83;;
18136;SDS011;9194;42.632;23.298;2023-10-19T01:22:50;1.63;;;1.53;;
18136;SDS011;9194;42.632;23.298;2023-10-19T01:27:54;1.50;;;1.40;;
18136;SDS011;9194;42.632;23.298;2023-10-19T01:32:58;1.40;;;1.40;;
18136;SDS011;9194;42.632;23.298;2023-10-19T01:38:00;1.57;;;1.47;;
18136;SDS011;9194;42.632;23.298;2023-10-19T01:43:01;3.13;;;1.90;;
18136;SDS011;9194;42.632;23.298;2023-10-19T01:48:03;9.20;;;2.40;;
18136;SDS011;9194;42.632;23.298;2023-10-19T01:53:05;2.10;;;1.33;;
18136;SDS011;9194;42.632;23.298;2023-10-19T01:58:16;1.33;;;1.27;;
18136;SDS011;9194;42.632;23.298;2023-10-19T02:03:17;3.47;;;1.43;;
18136;SDS011;9194;42.632;23.298;2023-10-19T02:08:18;1.50;;;1.40;;
18136;SDS011;9194;42.632;23.298;2023-10-19T02:13:22;2.10;;;1.90;;
18136;SDS011;9194;42.632;23.298;2023-10-19T02:18:24;4.30;;;1.50;;
18136;SDS011;9194;42.632;23.298;2023-10-19T02:23:25;2.13;;;1.70;;
18136;SDS011;9194;42.632;23.298;2023-10-19T02:28:26;1.33;;;1.33;;
18136;SDS011;9194;42.632;23.298;2023-10-19T02:33:32;1.93;;;1.83;;
18136;SDS011;9194;42.632;23.298;2023-10-19T02:38:33;2.40;;;1.50;;
18136;SDS011;9194;42.632;23.298;2023-10-19T02:43:35;1.63;;;1.63;;
18136;SDS011;9194;42.632;23.298;2023-10-19T02:48:38;1.33;;;1.33;;
18136;SDS011;9194;42.632;23.298;2023-10-19T02:53:39;1.67;;;1.57;;
18136;SDS011;9194;42.632;23.298;2023-10-19T02:58:42;1.37;;;1.30;;
18136;SDS011;9194;42.632;23.298;2023-10-19T03:03:44;2.33;;;2.13;;
18136;SDS011;9194;42.632;23.298;2023-10-19T03:08:47;5.27;;;1.97;;
18136;SDS011;9194;42.632;23.298;2023-10-19T03:13:58;3.27;;;2.53;;
18136;SDS011;9194;42.632;23.298;2023-10-19T03:18:59;1.80;;;1.70;;
18136;SDS011;9194;42.632;23.298;2023-10-19T03:24:00;2.40;;;2.10;;
18136;SDS011;9194;42.632;23.298;2023-10-19T03:29:06;4.50;;;2.07;;
18136;SDS011;9194;42.632;23.298;2023-10-19T03:34:15;2.23;;;2.13;;
18136;SDS011;9194;42.632;23.298;2023-10-19T03:39:19;2.27;;;1.97;;
18136;SDS011;9194;42.632;23.298;2023-10-19T03:44:22;1.70;;;1.60;;
18136;SDS011;9194;42.632;23.298;2023-10-19T03:49:26;1.77;;;1.77;;
18136;SDS011;9194;42.632;23.298;2023-10-19T03:54:35;1.37;;;1.27;;
18136;SDS011;9194;42.632;23.298;2023-10-19T03:59:43;23.47;;;3.13;;
18136;SDS011;9194;42.632;23.298;2023-10-19T04:04:45;1.93;;;1.83;;
18136;SDS011;9194;42.632;23.298;2023-10-19T04:09:49;2.53;;;2.33;;
18136;SDS011;9194;42.632;23.298;2023-10-19T04:15:11;2.53;;;1.97;;
18136;SDS011;9194;42.632;23.298;2023-10-19T04:20:18;2.33;;;2.23;;
18136;SDS011;9194;42.632;23.298;2023-10-19T04:25:19;2.20;;;1.50;;
18136;SDS011;9194;42.632;23.298;2023-10-19T04:30:21;1.27;;;1.27;;
18136;SDS011;9194;42.632;23.298;2023-10-19T04:35:23;3.93;;;1.97;;
18136;SDS011;9194;42.632;23.298;2023-10-19T04:40:25;1.20;;;1.20;;
18136;SDS011;9194;42.632;23.298;2023-10-19T04:45:27;1.83;;;1.73;;
18136;SDS011;9194;42.632;23.298;2023-10-19T04:50:28;1.67;;;1.63;;
18136;SDS011;9194;42.632;23.298;2023-10-19T04:55:29;2.03;;;1.87;;
18136;SDS011;9194;42.632;23.298;2023-10-19T05:00:31;1.63;;;1.63;;
18136;SDS011;9194;42.632;23.298;2023-10-19T05:05:33;8.87;;;1.30;;
18136;SDS011;9194;42.632;23.298;2023-10-19T05:10:36;1.17;;;1.17;;
18136;SDS011;9194;42.632;23.298;2023-10-19T05:15:38;2.13;;;2.03;;
18136;SDS011;9194;42.632;23.298;2023-10-19T05:20:39;1.40;;;1.40;;
18136;SDS011;9194;42.632;23.298;2023-10-19T05:25:41;17.67;;;2.17;;
18136;SDS011;9194;42.632;23.298;2023-10-19T05:30:42;1.97;;;1.77;;
18136;SDS011;9194;42.632;23.298;2023-10-19T05:35:43;1.30;;;1.30;;
18136;SDS011;9194;42.632;23.298;2023-10-19T05:40:46;2.23;;;2.13;;
18136;SDS011;9194;42.632;23.298;2023-10-19T05:45:48;2.40;;;1.03;;
18136;SDS011;9194;42.632;23.298;2023-10-19T05:50:50;1.90;;;1.80;;
18136;SDS011;9194;42.632;23.298;2023-10-19T05:55:52;3.00;;;2.40;;
18136;SDS011;9194;42.632;23.298;2023-10-19T06:00:53;2.63;;;2.43;;
18136;SDS011;9194;42.632;23.298;2023-10-19T06:05:58;2.73;;;2.53;;
18136;SDS011;9194;42.632;23.298;2023-10-19T06:10:59;1.93;;;1.83;;
18136;SDS011;9194;42.632;23.298;2023-10-19T06:16:01;3.13;;;1.60;;
18136;SDS011;9194;42.632;23.298;2023-10-19T06:21:03;3.20;;;2.70;;
18136;SDS011;9194;42.632;23.298;2023-10-19T06:26:10;3.40;;;2.53;;
18136;SDS011;9194;42.632;23.298;2023-10-19T06:31:12;2.63;;;2.00;;
18136;SDS011;9194;42.632;23.298;2023-10-19T06:36:15;2.90;;;2.70;;
18136;SDS011;9194;42.632;23.298;2023-10-19T06:41:16;7.13;;;4.77;;
18136;SDS011;9194;42.632;23.298;2023-10-19T06:46:19;6.53;;;4.07;;
18136;SDS011;9194;42.632;23.298;2023-10-19T06:51:20;4.23;;;3.83;;
18136;SDS011;9194;42.632;23.298;2023-10-19T06:56:21;6.63;;;4.43;;
18136;SDS011;9194;42.632;23.298;2023-10-19T07:01:22;6.57;;;3.67;;
18136;SDS011;9194;42.632;23.298;2023-10-19T07:06:27;9.57;;;4.67;;
18136;SDS011;9194;42.632;23.298;2023-10-19T07:11:28;10.33;;;4.67;;
18136;SDS011;9194;42.632;23.298;2023-10-19T07:16:29;5.47;;;3.70;;
18136;SDS011;9194;42.632;23.298;2023-10-19T07:21:30;5.03;;;3.13;;
18136;SDS011;9194;42.632;23.298;2023-10-19T07:26:36;6.33;;;3.10;;
18136;SDS011;9194;42.632;23.298;2023-10-19T07:31:52;4.70;;;2.87;;
18136;SDS011;9194;42.632;23.298;2023-10-19T07:36:56;3.17;;;2.87;;
18136;SDS011;9194;42.632;23.298;2023-10-19T07:41:59;2.37;;;2.17;;
18136;SDS011;9194;42.632;23.298;2023-10-19T07:47:01;4.13;;;2.70;;
18136;SDS011;9194;42.632;23.298;2023-10-19T07:52:02;16.63;;;3.17;;
18136;SDS011;9194;42.632;23.298;2023-10-19T07:57:04;3.47;;;3.23;;
18136;SDS011;9194;42.632;23.298;2023-10-19T08:02:08;6.03;;;3.73;;
18136;SDS011;9194;42.632;23.298;2023-10-19T08:07:09;3.90;;;2.80;;
18136;SDS011;9194;42.632;23.298;2023-10-19T08:12:11;4.20;;;2.83;;
18136;SDS011;9194;42.632;23.298;2023-10-19T08:17:14;4.97;;;2.93;;
18136;SDS011;9194;42.632;23.298;2023-10-19T08:22:15;4.97;;;3.53;;
18136;SDS011;9194;42.632;23.298;2023-10-19T08:27:17;2.83;;;2.50;;
18136;SDS011;9194;42.632;23.298;2023-10-19T08:32:18;11.10;;;3.03;;
18136;SDS011;9194;42.632;23.298;2023-10-19T08:37:19;3.50;;;2.30;;
18136;SDS011;9194;42.632;23.298;2023-10-19T08:42:20;3.20;;;2.73;;
18136;SDS011;9194;42.632;23.298;2023-10-19T08:47:22;4.37;;;2.53;;
18136;SDS011;9194;42.632;23.298;2023-10-19T08:52:26;3.43;;;2.93;;
18136;SDS011;9194;42.632;23.298;2023-10-19T08:57:28;2.70;;;2.50;;
18136;SDS011;9194;42.632;23.298;2023-10-19T09:02:30;8.27;;;2.80;;
18136;SDS011;9194;42.632;23.298;2023-10-19T09:07:49;2.70;;;2.50;;
18136;SDS011;9194;42.632;23.298;2023-10-19T09:13:00;5.50;;;3.33;;
18136;SDS011;9194;42.632;23.298;2023-10-19T09:18:15;1.60;;;1.50;;
18136;SDS011;9194;42.632;23.298;2023-10-19T09:23:20;1.97;;;1.77;;
18136;SDS011;9194;42.632;23.298;2023-10-19T09:28:29;2.83;;;1.73;;
18136;SDS011;9194;42.632;23.298;2023-10-19T09:33:34;2.20;;;2.00;;
18136;SDS011;9194;42.632;23.298;2023-10-19T09:38:35;1.75;;;1.60;;
18136;SDS011;9194;42.632;23.298;2023-10-19T09:48:45;1.63;;;1.53;;
18136;SDS011;9194;42.632;23.298;2023-10-19T09:53:53;1.65;;;1.55;;
18136;SDS011;9194;42.632;23.298;2023-10-19T09:59:11;2.22;;;2.03;;
18136;SDS011;9194;42.632;23.298;2023-10-19T10:04:32;1.88;;;1.65;;
18136;SDS011;9194;42.632;23.298;2023-10-19T10:09:37;5.00;;;2.10;;
18136;SDS011;9194;42.632;23.298;2023-10-19T10:25:27;2.17;;;1.97;;
18136;SDS011;9194;42.632;23.298;2023-10-19T10:30:29;1.38;;;1.25;;
18136;SDS011;9194;42.632;23.298;2023-10-19T10:36:16;4.28;;;1.95;;
18136;SDS011;9194;42.632;23.298;2023-10-19T10:40:55;1.97;;;1.67;;
18136;SDS011;9194;42.632;23.298;2023-10-19T10:46:04;3.95;;;1.77;;
18136;SDS011;9194;42.632;23.298;2023-10-19T10:51:14;2.55;;;1.80;;
18136;SDS011;9194;42.632;23.298;2023-10-19T10:56:16;5.53;;;2.42;;
18136;SDS011;9194;42.632;23.298;2023-10-19T11:01:28;2.78;;;2.13;;
18136;SDS011;9194;42.632;23.298;2023-10-19T11:06:30;3.20;;;2.05;;
18136;SDS011;9194;42.632;23.298;2023-10-19T11:11:36;3.05;;;2.42;;
18136;SDS011;9194;42.632;23.298;2023-10-19T11:16:38;3.45;;;2.40;;
18136;SDS011;9194;42.632;23.298;2023-10-19T11:21:53;1.73;;;1.40;;
18136;SDS011;9194;42.632;23.298;2023-10-19T11:26:55;3.97;;;2.03;;
18136;SDS011;9194;42.632;23.298;2023-10-19T11:31:57;3.38;;;2.25;;
18136;SDS011;9194;42.632;23.298;2023-10-19T11:37:00;1.25;;;1.15;;
18136;SDS011;9194;42.632;23.298;2023-10-19T11:42:04;7.05;;;1.98;;
18136;SDS011;9194;42.632;23.298;2023-10-19T11:47:05;2.42;;;1.77;;
18136;SDS011;9194;42.632;23.298;2023-10-19T11:52:06;1.98;;;1.67;;
18136;SDS011;9194;42.632;23.298;2023-10-19T11:57:08;1.70;;;1.58;;
18136;SDS011;9194;42.632;23.298;2023-10-19T12:02:09;3.22;;;1.48;;
18136;SDS011;9194;42.632;23.298;2023-10-19T12:07:10;3.25;;;1.90;;
18136;SDS011;9194;42.632;23.298;2023-10-19T12:12:12;2.97;;;1.63;;
18136;SDS011;9194;42.632;23.298;2023-10-19T12:17:14;1.67;;;1.58;;
18136;SDS011;9194;42.632;23.298;2023-10-19T12:22:16;2.45;;;1.48;;
18136;SDS011;9194;42.632;23.298;2023-10-19T12:27:17;1.67;;;1.63;;
18136;SDS011;9194;42.632;23.298;2023-10-19T12:32:19;1.42;;;1.38;;
18136;SDS011;9194;42.632;23.298;2023-10-19T12:37:20;2.80;;;2.17;;
18136;SDS011;9194;42.632;23.298;2023-10-19T12:42:21;1.73;;;1.63;;
18136;SDS011;9194;42.632;23.298;2023-10-19T12:47:24;3.92;;;1.83;;
18136;SDS011;9194;42.632;23.298;2023-10-19T12:52:25;6.10;;;2.08;;
18136;SDS011;9194;42.632;23.298;2023-10-19T12:57:26;3.15;;;1.70;;
18136;SDS011;9194;42.632;23.298;2023-10-19T13:02:28;1.48;;;1.38;;
18136;SDS011;9194;42.632;23.298;2023-10-19T13:07:31;7.72;;;1.20;;
18136;SDS011;9194;42.632;23.298;2023-10-19T13:12:32;1.17;;;1.10;;
18136;SDS011;9194;42.632;23.298;2023-10-19T13:17:33;7.32;;;1.33;;
18136;SDS011;9194;42.632;23.298;2023-10-19T13:22:35;1.05;;;1.05;;
18136;SDS011;9194;42.632;23.298;2023-10-19T13:27:37;0.70;;;0.70;;
18136;SDS011;9194;42.632;23.298;2023-10-19T13:32:38;1.67;;;1.48;;
18136;SDS011;9194;42.632;23.298;2023-10-19T13:37:39;0.90;;;0.90;;
18136;SDS011;9194;42.632;23.298;2023-10-19T13:42:40;13.35;;;0.93;;
18136;SDS011;9194;42.632;23.298;2023-10-19T13:48:02;1.15;;;1.15;;
18136;SDS011;9194;42.632;23.298;2023-10-19T13:53:04;1.27;;;1.17;;
18136;SDS011;9194;42.632;23.298;2023-10-19T13:58:05;2.28;;;1.20;;
18136;SDS011;9194;42.632;23.298;2023-10-19T14:03:10;1.17;;;1.05;;
18136;SDS011;9194;42.632;23.298;2023-10-19T14:08:15;1.20;;;1.20;;
18136;SDS011;9194;42.632;23.298;2023-10-19T14:13:17;2.42;;;1.63;;
18136;SDS011;9194;42.632;23.298;2023-10-19T14:18:19;1.85;;;1.75;;
18136;SDS011;9194;42.632;23.298;2023-10-19T14:23:20;1.08;;;1.08;;
18136;SDS011;9194;42.632;23.298;2023-10-19T14:28:21;1.75;;;0.93;;
18136;SDS011;9194;42.632;23.298;2023-10-19T14:33:22;0.88;;;0.88;;
18136;SDS011;9194;42.632;23.298;2023-10-19T14:38:23;1.67;;;1.58;;
18136;SDS011;9194;42.632;23.298;2023-10-19T14:43:26;0.88;;;0.88;;
18136;SDS011;9194;42.632;23.298;2023-10-19T14:48:30;0.80;;;0.80;;
18136;SDS011;9194;42.632;23.298;2023-10-19T14:53:31;2.63;;;1.08;;
18136;SDS011;9194;42.632;23.298;2023-10-19T14:58:32;1.40;;;1.35;;
18136;SDS011;9194;42.632;23.298;2023-10-19T15:03:33;2.60;;;0.90;;
18136;SDS011;9194;42.632;23.298;2023-10-19T15:08:36;1.50;;;1.40;;
18136;SDS011;9194;42.632;23.298;2023-10-19T15:13:37;0.77;;;0.77;;
18136;SDS011;9194;42.632;23.298;2023-10-19T15:18:38;2.40;;;1.98;;
18136;SDS011;9194;42.632;23.298;2023-10-19T15:23:40;1.08;;;1.08;;
18136;SDS011;9194;42.632;23.298;2023-10-19T15:28:44;1.17;;;1.08;;
18136;SDS011;9194;42.632;23.298;2023-10-19T15:33:46;1.25;;;1.25;;
18136;SDS011;9194;42.632;23.298;2023-10-19T15:38:48;1.20;;;1.10;;
18136;SDS011;9194;42.632;23.298;2023-10-19T15:43:50;1.75;;;1.50;;
18136;SDS011;9194;42.632;23.298;2023-10-19T15:48:51;1.17;;;1.17;;
18136;SDS011;9194;42.632;23.298;2023-10-19T15:53:52;1.10;;;1.10;;
18136;SDS011;9194;42.632;23.298;2023-10-19T15:58:54;0.98;;;0.98;;
18136;SDS011;9194;42.632;23.298;2023-10-19T16:03:55;1.65;;;1.55;;
18136;SDS011;9194;42.632;23.298;2023-10-19T16:08:56;0.90;;;0.90;;
18136;SDS011;9194;42.632;23.298;2023-10-19T16:13:58;0.90;;;0.90;;
18136;SDS011;9194;42.632;23.298;2023-10-19T16:18:59;1.23;;;1.23;;
18136;SDS011;9194;42.632;23.298;2023-10-19T16:24:01;0.82;;;0.82;;
18136;SDS011;9194;42.632;23.298;2023-10-19T16:29:02;1.02;;;1.02;;
18136;SDS011;9194;42.632;23.298;2023-10-19T16:34:06;1.38;;;1.27;;
18136;SDS011;9194;42.632;23.298;2023-10-19T16:39:09;2.67;;;1.15;;
18136;SDS011;9194;42.632;23.298;2023-10-19T16:44:13;1.25;;;1.17;;
18136;SDS011;9194;42.632;23.298;2023-10-19T16:49:15;7.72;;;1.27;;
18136;SDS011;9194;42.632;23.298;2023-10-19T16:54:17;1.33;;;1.23;;
18136;SDS011;9194;42.632;23.298;2023-10-19T16:59:18;1.35;;;0.95;;
18136;SDS011;9194;42.632;23.298;2023-10-19T17:04:20;1.50;;;1.40;;
18136;SDS011;9194;42.632;23.298;2023-10-19T17:09:21;1.10;;;1.10;;
18136;SDS011;9194;42.632;23.298;2023-10-19T17:14:23;0.98;;;0.98;;
18136;SDS011;9194;42.632;23.298;2023-10-19T17:19:24;1.42;;;1.25;;
18136;SDS011;9194;42.632;23.298;2023-10-19T17:24:26;1.00;;;0.98;;
18136;SDS011;9194;42.632;23.298;2023-10-19T17:29:28;0.93;;;0.93;;
18136;SDS011;9194;42.632;23.298;2023-10-19T17:34:29;13.77;;;1.83;;
18136;SDS011;9194;42.632;23.298;2023-10-19T17:39:32;0.95;;;0.95;;
18136;SDS011;9194;42.632;23.298;2023-10-19T17:44:34;0.60;;;0.60;;
18136;SDS011;9194;42.632;23.298;2023-10-19T17:49:35;1.02;;;1.02;;
18136;SDS011;9194;42.632;23.298;2023-10-19T17:54:36;0.75;;;0.75;;
18136;SDS011;9194;42.632;23.298;2023-10-19T17:59:38;1.20;;;1.20;;
18136;SDS011;9194;42.632;23.298;2023-10-19T18:04:39;1.98;;;1.42;;
18136;SDS011;9194;42.632;23.298;2023-10-19T18:09:41;0.80;;;0.80;;
18136;SDS011;9194;42.632;23.298;2023-10-19T18:14:45;1.25;;;1.25;;
18136;SDS011;9194;42.632;23.298;2023-10-19T18:19:46;11.55;;;6.32;;
18136;SDS011;9194;42.632;23.298;2023-10-19T18:24:47;4.72;;;2.35;;
18136;SDS011;9194;42.632;23.298;2023-10-19T18:29:48;3.45;;;2.33;;
18136;SDS011;9194;42.632;23.298;2023-10-19T18:34:49;1.98;;;1.58;;
18136;SDS011;9194;42.632;23.298;2023-10-19T18:39:50;1.03;;;1.03;;
18136;SDS011;9194;42.632;23.298;2023-10-19T18:44:52;1.92;;;1.75;;
18136;SDS011;9194;42.632;23.298;2023-10-19T18:49:54;0.90;;;0.90;;
18136;SDS011;9194;42.632;23.298;2023-10-19T18:54:56;0.85;;;0.85;;
18136;SDS011;9194;42.632;23.298;2023-10-19T18:59:57;1.07;;;1.07;;
18136;SDS011;9194;42.632;23.298;2023-10-19T19:04:58;0.85;;;0.85;;
18136;SDS011;9194;42.632;23.298;2023-10-19T19:09:59;1.17;;;1.17;;
18136;SDS011;9194;42.632;23.298;2023-10-19T19:15:01;1.08;;;1.08;;
18136;SDS011;9194;42.632;23.298;2023-10-19T19:20:02;0.80;;;0.80;;
18136;SDS011;9194;42.632;23.298;2023-10-19T19:25:03;6.03;;;2.13;;
18136;SDS011;9194;42.632;23.298;2023-10-19T19:30:06;0.98;;;0.98;;
18136;SDS011;9194;42.632;23.298;2023-10-19T19:35:07;0.55;;;0.50;;
18136;SDS011;9194;42.632;23.298;2023-10-19T19:40:09;3.20;;;1.20;;
18136;SDS011;9194;42.632;23.298;2023-10-19T19:45:14;1.25;;;1.25;;
18136;SDS011;9194;42.632;23.298;2023-10-19T19:50:15;1.70;;;1.50;;
18136;SDS011;9194;42.632;23.298;2023-10-19T19:55:17;1.50;;;1.40;;
18136;SDS011;9194;42.632;23.298;2023-10-19T20:00:18;1.23;;;1.20;;
18136;SDS011;9194;42.632;23.298;2023-10-19T20:05:26;1.53;;;1.50;;
18136;SDS011;9194;42.632;23.298;2023-10-19T20:10:38;0.97;;;0.97;;
18136;SDS011;9194;42.632;23.298;2023-10-19T20:15:43;0.93;;;0.93;;
18136;SDS011;9194;42.632;23.298;2023-10-19T20:20:44;0.95;;;0.93;;
18136;SDS011;9194;42.632;23.298;2023-10-19T20:25:46;1.33;;;1.23;;
18136;SDS011;9194;42.632;23.298;2023-10-19T20:30:47;1.33;;;1.33;;
18136;SDS011;9194;42.632;23.298;2023-10-19T20:35:49;1.20;;;1.10;;
18136;SDS011;9194;42.632;23.298;2023-10-19T20:40:53;0.70;;;0.70;;
18136;SDS011;9194;42.632;23.298;2023-10-19T20:45:54;2.10;;;1.43;;
18136;SDS011;9194;42.632;23.298;2023-10-19T20:50:55;1.60;;;1.53;;
18136;SDS011;9194;42.632;23.298;2023-10-19T20:56:00;1.23;;;1.23;;
18136;SDS011;9194;42.632;23.298;2023-10-19T21:01:05;1.03;;;1.03;;
18136;SDS011;9194;42.632;23.298;2023-10-19T21:06:12;4.53;;;1.80;;
18136;SDS011;9194;42.632;23.298;2023-10-19T21:11:14;1.93;;;1.50;;
18136;SDS011;9194;42.632;23.298;2023-10-19T21:16:17;3.50;;;1.73;;
18136;SDS011;9194;42.632;23.298;2023-10-19T21:21:18;1.10;;;1.10;;
18136;SDS011;9194;42.632;23.298;2023-10-19T21:26:20;2.60;;;1.60;;
18136;SDS011;9194;42.632;23.298;2023-10-19T21:31:21;3.23;;;2.13;;
18136;SDS011;9194;42.632;23.298;2023-10-19T21:36:22;1.77;;;1.67;;
18136;SDS011;9194;42.632;23.298;2023-10-19T21:41:24;2.20;;;1.13;;
18136;SDS011;9194;42.632;23.298;2023-10-19T21:46:27;1.30;;;1.20;;
18136;SDS011;9194;42.632;23.298;2023-10-19T21:51:28;2.03;;;1.80;;
18136;SDS011;9194;42.632;23.298;2023-10-19T21:56:30;1.90;;;1.80;;
18136;SDS011;9194;42.632;23.298;2023-10-19T22:01:31;1.23;;;1.13;;
18136;SDS011;9194;42.632;23.298;2023-10-19T22:06:32;10.60;;;1.33;;
18136;SDS011;9194;42.632;23.298;2023-10-19T22:11:34;0.83;;;0.83;;
18136;SDS011;9194;42.632;23.298;2023-10-19T22:16:35;2.33;;;1.23;;
18136;SDS011;9194;42.632;23.298;2023-10-19T22:21:36;0.80;;;0.80;;
18136;SDS011;9194;42.632;23.298;2023-10-19T22:26:39;0.90;;;0.90;;
18136;SDS011;9194;42.632;23.298;2023-10-19T22:31:40;1.57;;;1.47;;
18136;SDS011;9194;42.632;23.298;2023-10-19T22:36:41;0.90;;;0.90;;
18136;SDS011;9194;42.632;23.298;2023-10-19T22:41:43;1.50;;;1.40;;
18136;SDS011;9194;42.632;23.298;2023-10-19T22:46:44;0.90;;;0.90;;
18136;SDS011;9194;42.632;23.298;2023-10-19T22:51:45;1.63;;;1.53;;
18136;SDS011;9194;42.632;23.298;2023-10-19T22:56:46;1.13;;;0.90;;
18136;SDS011;9194;42.632;23.298;2023-10-19T23:01:47;1.47;;;1.37;;
18136;SDS011;9194;42.632;23.298;2023-10-19T23:06:49;1.60;;;1.53;;
18136;SDS011;9194;42.632;23.298;2023-10-19T23:11:52;1.27;;;1.17;;
18136;SDS011;9194;42.632;23.298;2023-10-19T23:17:00;1.90;;;1.50;;
18136;SDS011;9194;42.632;23.298;2023-10-19T23:22:06;0.95;;;0.95;;
18136;SDS011;9194;42.632;23.298;2023-10-19T23:27:08;1.63;;;1.53;;
18136;SDS011;9194;42.632;23.298;2023-10-19T23:32:12;2.63;;;1.07;;
18136;SDS011;9194;42.632;23.298;2023-10-19T23:37:14;1.07;;;1.07;;
18136;SDS011;9194;42.632;23.298;2023-10-19T23:42:15;1.20;;;1.20;;
18136;SDS011;9194;42.632;23.298;2023-10-19T23:47:17;1.27;;;1.23;;
18136;SDS011;9194;42.632;23.298;2023-10-19T23:52:19;1.90;;;1.67;;
18136;SDS011;9194;42.632;23.298;2023-10-19T23:57:20;1.70;;;1.60;;
